Time;durP1;ratioP1;P1;durP2;ratioP2;P2;SDS_P1;SDS_P2;PMS_P1;PMS_P2;Temp;Humidity;BMP_temperature;BMP_pressure;BME280_temperature;BME280_humidity;BME280_pressure;Samples;Min_cycle;Max_cycle;Signal;HPM_P1;HPM_P2
2023/06/28 00:00:14;;;;;;;43.22;39.45;;;17.30;1.00;;;;;;5032509;28;20038;-57
2023/06/28 00:02:40;;;;;;;41.42;37.83;;;17.20;1.00;;;;;;5032321;28;20037;-56
2023/06/28 00:05:07;;;;;;;42.97;39.22;;;17.20;1.00;;;;;;5031926;28;20088;-56
2023/06/28 00:07:33;;;;;;;46.55;42.47;;;17.30;1.00;;;;;;5032198;28;20092;-57
2023/06/28 00:09:59;;;;;;;47.50;43.40;;;17.30;1.00;;;;;;5025687;28;20450;-57
2023/06/28 00:12:26;;;;;;;52.20;47.38;;;17.30;1.00;;;;;;5012233;28;20092;-56
2023/06/28 00:14:55;;;;;;;52.65;47.88;;;17.40;1.00;;;;;;5022000;28;20046;-56
2023/06/28 00:17:27;;;;;;;48.90;44.45;;;17.40;1.00;;;;;;5063968;28;20042;-56
2023/06/28 00:19:57;;;;;;;50.17;45.47;;;17.40;1.00;;;;;;5030441;28;20065;-56
2023/06/28 00:22:29;;;;;;;48.03;43.72;;;17.40;1.00;;;;;;5031997;28;20038;-56
2023/06/28 00:25:04;;;;;;;46.55;41.97;;;17.40;1.00;;;;;;5031296;28;20149;-56
2023/06/28 00:27:30;;;;;;;46.75;42.25;;;17.50;39.50;;;;;;5032045;28;20049;-57
2023/06/28 00:29:56;;;;;;;46.10;41.83;;;17.40;90.80;;;;;;5031800;28;20127;-59
2023/06/28 00:32:23;;;;;;;46.10;41.90;;;17.40;99.90;;;;;;5031662;28;20043;-58
2023/06/28 00:34:49;;;;;;;45.28;40.90;;;17.50;99.90;;;;;;5063730;28;20069;-57
2023/06/28 00:37:14;;;;;;;43.17;39.33;;;17.40;99.90;;;;;;5031476;28;20041;-57
2023/06/28 00:39:40;;;;;;;41.35;37.55;;;17.30;99.90;;;;;;5031805;28;20034;-58
2023/06/28 00:42:06;;;;;;;40.72;37.03;;;17.40;1.00;;;;;;5031472;28;20044;-58
2023/06/28 00:44:31;;;;;;;40.65;36.60;;;17.30;1.00;;;;;;5031494;28;20041;-57
2023/06/28 00:46:58;;;;;;;37.92;34.63;;;17.30;1.00;;;;;;5031472;28;20037;-56
2023/06/28 00:49:31;;;;;;;38.42;34.67;;;17.10;1.00;;;;;;5031361;28;20092;-57
2023/06/28 00:51:56;;;;;;;37.42;34.20;;;17.10;1.00;;;;;;5030360;28;20044;-58
2023/06/28 00:54:23;;;;;;;37.38;33.88;;;17.20;17.40;;;;;;5031492;28;20037;-58
2023/06/28 00:56:50;;;;;;;37.47;34.08;;;17.30;60.10;;;;;;5031262;28;20408;-57
2023/06/28 00:59:16;;;;;;;38.55;35.13;;;17.20;87.40;;;;;;5031412;28;20179;-57
2023/06/28 01:01:42;;;;;;;38.05;34.65;;;17.10;99.90;;;;;;5031121;28;20120;-58
2023/06/28 01:04:09;;;;;;;38.22;34.92;;;17.00;99.90;;;;;;5022159;28;20087;-57
2023/06/28 01:06:37;;;;;;;38.95;35.55;;;16.90;99.90;;;;;;5018870;28;20046;-57
2023/06/28 01:09:08;;;;;;;39.13;35.83;;;17.00;99.90;;;;;;5029299;28;20030;-57
2023/06/28 01:11:34;;;;;;;36.42;33.33;;;16.80;99.90;;;;;;5011275;28;20045;-56
2023/06/28 01:14:01;;;;;;;36.30;33.05;;;17.00;1.00;;;;;;5028361;28;20042;-56
2023/06/28 01:16:27;;;;;;;35.03;31.77;;;16.80;1.00;;;;;;5030444;28;20076;-56
2023/06/28 01:18:53;;;;;;;35.90;32.38;;;16.90;1.00;;;;;;5030842;28;20127;-56
2023/06/28 01:21:22;;;;;;;34.17;31.27;;;16.90;51.80;;;;;;5030724;28;20045;-56
2023/06/28 01:23:48;;;;;;;34.45;31.40;;;16.70;96.20;;;;;;5030613;28;20045;-56
2023/06/28 01:26:15;;;;;;;34.50;31.50;;;16.90;99.90;;;;;;5030158;28;20056;-56
2023/06/28 01:28:42;;;;;;;35.25;32.17;;;16.70;99.90;;;;;;5030335;28;20045;-57
2023/06/28 01:31:08;;;;;;;34.42;31.52;;;16.80;99.90;;;;;;5030842;28;20072;-56
2023/06/28 01:33:33;;;;;;;34.30;31.40;;;16.80;99.90;;;;;;5030924;28;20116;-56
2023/06/28 01:35:59;;;;;;;34.08;30.98;;;16.60;99.90;;;;;;5030461;28;20495;-57
2023/06/28 01:38:26;;;;;;;33.47;30.60;;;16.70;1.00;;;;;;5030511;28;20033;-57
2023/06/28 01:40:53;;;;;;;33.75;30.48;;;16.60;1.00;;;;;;5045806;28;20053;-58
2023/06/28 01:43:20;;;;;;;33.65;30.63;;;16.70;35.00;;;;;;5030229;28;20141;-56
2023/06/28 01:45:46;;;;;;;32.97;30.17;;;16.70;99.90;;;;;;5030522;28;20052;-56
2023/06/28 01:48:12;;;;;;;33.22;30.10;;;16.40;99.90;;;;;;5030232;28;20037;-56
2023/06/28 01:50:38;;;;;;;33.53;30.65;;;16.70;99.90;;;;;;5046868;28;20072;-57
2023/06/28 01:53:07;;;;;;;33.30;30.50;;;16.60;99.90;;;;;;5058029;28;20068;-56
2023/06/28 01:55:32;;;;;;;33.25;30.35;;;16.40;1.00;;;;;;5030411;28;20396;-56
2023/06/28 01:57:58;;;;;;;33.05;30.27;;;16.40;1.00;;;;;;5030002;28;20115;-57
2023/06/28 02:00:24;;;;;;;33.45;30.48;;;16.30;29.50;;;;;;5030042;28;20049;-57
2023/06/28 02:02:53;;;;;;;32.35;29.27;;;16.50;99.90;;;;;;5045446;28;20055;-57
2023/06/28 02:05:19;;;;;;;32.33;29.55;;;16.30;99.90;;;;;;5030239;28;20452;-57
2023/06/28 02:07:45;;;;;;;32.03;29.33;;;16.30;99.90;;;;;;5030221;28;20132;-57
2023/06/28 02:10:11;;;;;;;32.65;29.63;;;16.30;1.00;;;;;;5022292;28;20128;-57
2023/06/28 02:12:36;;;;;;;32.10;29.10;;;16.30;1.00;;;;;;5012831;28;20065;-57
2023/06/28 02:15:04;;;;;;;31.73;29.10;;;16.50;68.70;;;;;;5030066;28;20034;-57
2023/06/28 02:17:31;;;;;;;32.13;29.33;;;16.20;99.90;;;;;;5028605;28;20049;-57
2023/06/28 02:19:57;;;;;;;32.58;29.90;;;16.40;99.90;;;;;;5029875;28;20029;-57
2023/06/28 02:22:23;;;;;;;31.85;29.20;;;16.50;99.90;;;;;;5030061;28;20403;-57
2023/06/28 02:24:48;;;;;;;31.40;28.67;;;16.20;1.00;;;;;;5041814;28;20045;-57
2023/06/28 02:27:14;;;;;;;31.98;29.25;;;16.20;1.00;;;;;;5024359;28;20133;-57
2023/06/28 02:29:40;;;;;;;31.50;28.90;;;16.40;46.40;;;;;;5028612;28;20036;-57
2023/06/28 02:32:06;;;;;;;31.20;28.70;;;16.10;99.90;;;;;;5026980;28;20045;-57
2023/06/28 02:34:31;;;;;;;31.00;28.55;;;16.30;99.90;;;;;;5029422;28;20060;-57
2023/06/28 02:36:57;;;;;;;31.27;28.65;;;16.10;99.90;;;;;;5061363;28;20033;-57
2023/06/28 02:39:23;;;;;;;31.15;28.23;;;16.20;1.00;;;;;;5029782;28;20033;-56
2023/06/28 02:41:49;;;;;;;31.40;28.60;;;16.40;17.50;;;;;;5029302;28;20162;-57
2023/06/28 02:44:15;;;;;;;32.80;29.42;;;16.20;99.90;;;;;;5021723;28;20053;-57
2023/06/28 02:46:40;;;;;;;31.08;28.48;;;16.20;99.90;;;;;;5010660;28;20058;-57
2023/06/28 02:49:06;;;;;;;30.73;28.08;;;16.20;99.90;;;;;;5014126;28;20040;-56
2023/06/28 02:51:32;;;;;;;31.52;28.77;;;16.20;1.00;;;;;;5029477;28;20128;-56
2023/06/28 02:53:58;;;;;;;31.70;28.92;;;16.20;1.00;;;;;;5029613;28;20207;-57
2023/06/28 02:56:25;;;;;;;31.30;28.70;;;16.10;30.00;;;;;;5029835;28;20048;-57
2023/06/28 02:58:51;;;;;;;31.08;28.35;;;16.50;99.90;;;;;;5029769;28;20052;-57
2023/06/28 03:01:17;;;;;;;32.22;28.88;;;16.50;99.90;;;;;;5029986;28;20033;-57
2023/06/28 03:03:42;;;;;;;31.33;28.52;;;16.20;99.90;;;;;;5028979;28;20038;-56
2023/06/28 03:06:08;;;;;;;31.23;28.73;;;16.40;99.90;;;;;;5020526;28;20633;-57
2023/06/28 03:08:34;;;;;;;31.00;28.20;;;16.40;1.00;;;;;;5029351;28;20187;-56
2023/06/28 03:11:00;;;;;;;30.38;27.67;;;16.30;1.00;;;;;;5018857;28;20115;-57
2023/06/28 03:13:25;;;;;;;31.45;28.75;;;16.40;1.00;;;;;;5029623;28;20065;-57
2023/06/28 03:15:51;;;;;;;30.65;27.98;;;16.30;43.70;;;;;;5029504;28;20037;-56
2023/06/28 03:18:17;;;;;;;30.83;28.00;;;16.30;99.90;;;;;;5029403;28;20080;-57
2023/06/28 03:20:42;;;;;;;31.05;27.95;;;16.60;99.90;;;;;;5029541;28;20051;-57
2023/06/28 03:23:08;;;;;;;30.08;27.38;;;16.30;99.90;;;;;;5028047;28;20492;-56
2023/06/28 03:25:34;;;;;;;29.95;27.45;;;16.40;99.90;;;;;;5029117;28;20129;-57
2023/06/28 03:28:00;;;;;;;32.15;29.05;;;16.40;99.90;;;;;;5029413;28;20098;-57
2023/06/28 03:30:25;;;;;;;31.15;28.30;;;16.50;1.00;;;;;;5012230;28;20068;-57
2023/06/28 03:32:51;;;;;;;29.50;26.88;;;16.60;1.00;;;;;;5009343;28;20113;-57
2023/06/28 03:35:17;;;;;;;30.17;27.48;;;16.30;1.00;;;;;;5008587;28;20041;-58
2023/06/28 03:37:53;;;;;;;29.92;27.33;;;16.50;18.70;;;;;;5009387;28;20084;-58
2023/06/28 03:40:19;;;;;;;31.58;28.65;;;16.20;99.90;;;;;;5013006;28;20084;-57
2023/06/28 03:42:44;;;;;;;29.35;26.85;;;16.10;99.90;;;;;;5012776;28;20090;-58
2023/06/28 03:45:10;;;;;;;31.25;28.27;;;16.50;99.90;;;;;;5013055;28;20045;-58
2023/06/28 03:47:36;;;;;;;30.95;28.15;;;16.20;99.90;;;;;;5012783;28;20404;-58
2023/06/28 03:50:02;;;;;;;30.90;27.70;;;16.40;99.90;;;;;;5020844;28;20041;-58
2023/06/28 03:52:28;;;;;;;30.42;27.50;;;16.50;1.00;;;;;;5063873;28;20518;-58
2023/06/28 03:54:54;;;;;;;31.05;27.05;;;16.00;1.00;;;;;;5032261;28;20152;-58
2023/06/28 03:57:21;;;;;;;30.23;27.40;;;16.00;1.00;;;;;;5032562;28;20044;-58
2023/06/28 03:59:47;;;;;;;29.83;27.05;;;16.20;40.20;;;;;;5031089;28;20045;-58
2023/06/28 04:02:12;;;;;;;29.75;26.95;;;16.40;99.90;;;;;;5032306;28;20056;-58
2023/06/28 04:04:38;;;;;;;29.70;27.02;;;16.40;99.90;;;;;;5032202;28;20052;-58
2023/06/28 04:07:04;;;;;;;29.77;27.25;;;16.00;99.90;;;;;;5030700;28;20049;-58
2023/06/28 04:09:29;;;;;;;30.52;27.48;;;16.00;99.90;;;;;;5030103;28;20045;-58
2023/06/28 04:11:55;;;;;;;29.52;26.95;;;16.00;99.90;;;;;;5012178;28;20516;-59
2023/06/28 04:14:23;;;;;;;29.75;26.75;;;16.10;99.90;;;;;;5012222;28;20038;-59
2023/06/28 04:16:49;;;;;;;30.63;27.75;;;16.10;99.90;;;;;;5012418;28;20465;-58
2023/06/28 04:19:15;;;;;;;31.38;28.33;;;16.20;99.90;;;;;;5012236;28;20140;-59
2023/06/28 04:21:40;;;;;;;32.17;28.83;;;15.90;99.90;;;;;;5044238;28;20121;-58
2023/06/28 04:24:06;;;;;;;33.80;30.25;;;16.50;99.90;;;;;;5012319;28;20045;-59
2023/06/28 04:26:31;;;;;;;32.70;29.27;;;16.70;99.90;;;;;;5044506;28;20137;-58
2023/06/28 04:28:57;;;;;;;35.80;29.60;;;16.60;99.90;;;;;;5031854;28;20128;-58
2023/06/28 04:31:23;;;;;;;32.83;29.60;;;16.30;99.90;;;;;;5031735;28;20482;-58
2023/06/28 04:33:51;;;;;;;32.47;29.55;;;16.20;99.90;;;;;;5032151;28;20105;-58
2023/06/28 04:36:21;;;;;;;32.55;29.38;;;16.60;99.90;;;;;;5031801;28;20033;-58
2023/06/28 04:38:50;;;;;;;34.10;30.67;;;16.60;99.90;;;;;;5031758;28;20496;-58
2023/06/28 04:41:16;;;;;;;33.92;30.83;;;16.50;99.90;;;;;;5030200;28;20053;-58
2023/06/28 04:43:43;;;;;;;33.83;30.42;;;16.50;99.90;;;;;;5031547;28;20427;-58
2023/06/28 04:46:11;;;;;;;35.05;31.55;;;16.80;99.90;;;;;;5031540;28;20050;-58
2023/06/28 04:48:41;;;;;;;33.65;30.23;;;16.80;99.90;;;;;;5062736;28;20083;-59
2023/06/28 04:51:06;;;;;;;34.00;30.70;;;16.30;99.90;;;;;;5030865;28;20087;-59
2023/06/28 04:53:32;;;;;;;33.42;30.23;;;16.30;99.90;;;;;;5031493;28;20475;-59
2023/06/28 04:56:00;;;;;;;33.40;29.55;;;16.40;99.90;;;;;;5031378;28;20132;-59
2023/06/28 04:58:25;;;;;;;32.95;29.60;;;16.90;99.90;;;;;;5030255;28;20583;-59
2023/06/28 05:00:51;;;;;;;32.85;29.85;;;16.90;99.90;;;;;;5031268;28;20057;-58
2023/06/28 05:03:16;;;;;;;35.05;31.55;;;17.00;99.90;;;;;;5031591;28;20033;-59
2023/06/28 05:05:42;;;;;;;33.55;30.10;;;16.40;99.90;;;;;;5031242;28;20037;-59
2023/06/28 05:08:09;;;;;;;33.22;29.90;;;16.80;99.90;;;;;;5031237;28;20052;-59
2023/06/28 05:10:36;;;;;;;33.60;29.95;;;16.50;99.90;;;;;;5020086;28;20117;-59
2023/06/28 05:13:02;;;;;;;32.90;29.60;;;16.60;99.90;;;;;;5011256;28;20104;-58
2023/06/28 05:15:32;;;;;;;33.63;30.15;;;16.50;99.90;;;;;;5029982;28;20071;-59
2023/06/28 05:17:58;;;;;;;34.25;30.50;;;16.60;99.90;;;;;;5031224;28;20047;-59
2023/06/28 05:20:24;;;;;;;33.30;29.83;;;17.10;99.90;;;;;;5046380;28;20083;-59
2023/06/28 05:22:50;;;;;;;32.58;29.30;;;17.20;99.90;;;;;;5031079;28;20864;-59
2023/06/28 05:25:16;;;;;;;31.65;28.70;;;16.60;99.90;;;;;;5030556;28;20042;-59
2023/06/28 05:27:42;;;;;;;32.65;29.17;;;17.20;99.90;;;;;;5030880;28;20033;-59
2023/06/28 05:30:08;;;;;;;32.22;29.15;;;17.30;99.90;;;;;;5030676;28;20598;-59
2023/06/28 05:32:35;;;;;;;33.85;29.65;;;17.30;99.90;;;;;;5030794;28;20050;-59
2023/06/28 05:35:02;;;;;;;32.05;28.80;;;17.30;99.90;;;;;;5030765;28;20052;-59
2023/06/28 05:37:28;;;;;;;32.08;28.80;;;17.40;99.90;;;;;;5030699;28;20385;-59
2023/06/28 05:39:54;;;;;;;32.40;29.20;;;16.90;99.90;;;;;;5030539;28;20510;-59
2023/06/28 05:42:21;;;;;;;32.55;29.00;;;16.90;99.90;;;;;;5030342;28;20103;-59
2023/06/28 05:44:47;;;;;;;32.42;29.23;;;16.80;99.90;;;;;;5030491;28;20041;-59
2023/06/28 05:47:12;;;;;;;32.30;29.02;;;17.60;99.90;;;;;;5030500;28;20049;-59
2023/06/28 05:49:39;;;;;;;31.92;28.83;;;16.90;99.90;;;;;;5062755;28;20480;-59
2023/06/28 05:52:05;;;;;;;31.90;28.83;;;17.20;99.90;;;;;;5030393;28;20049;-59
2023/06/28 05:54:31;;;;;;;33.20;29.30;;;17.10;99.90;;;;;;5030421;28;20037;-59
2023/06/28 05:56:57;;;;;;;32.75;29.27;;;17.70;99.90;;;;;;5030233;28;20494;-59
2023/06/28 05:59:23;;;;;;;32.25;28.83;;;17.10;99.90;;;;;;5030334;28;20560;-59
2023/06/28 06:01:48;;;;;;;33.20;29.77;;;17.70;99.90;;;;;;5030234;28;20128;-59
2023/06/28 06:04:14;;;;;;;32.58;29.50;;;17.00;99.90;;;;;;5030187;28;20045;-60
2023/06/28 06:06:39;;;;;;;33.15;29.75;;;17.00;99.90;;;;;;5030151;28;20498;-60
2023/06/28 06:09:05;;;;;;;32.15;28.98;;;17.60;99.90;;;;;;5021921;28;20042;-60
2023/06/28 06:11:30;;;;;;;31.92;28.65;;;17.30;99.90;;;;;;5025946;28;20040;-61
2023/06/28 06:13:56;;;;;;;33.35;29.85;;;17.80;99.90;;;;;;5029810;28;20128;-61
2023/06/28 06:16:22;;;;;;;32.10;29.05;;;17.00;99.90;;;;;;5023015;28;20033;-58
2023/06/28 06:18:47;;;;;;;32.90;29.73;;;17.40;99.90;;;;;;5029938;28;20121;-58
2023/06/28 06:21:13;;;;;;;31.23;28.20;;;17.80;99.90;;;;;;5044934;28;20518;-58
2023/06/28 06:23:38;;;;;;;31.45;28.23;;;17.80;99.90;;;;;;5027911;28;20049;-58
2023/06/28 06:26:04;;;;;;;31.92;28.85;;;17.70;99.90;;;;;;5029694;28;20037;-58
2023/06/28 06:28:29;;;;;;;34.35;29.48;;;17.20;99.90;;;;;;5023181;28;20104;-58
2023/06/28 06:30:55;;;;;;;32.97;29.60;;;17.80;99.90;;;;;;5013499;28;20050;-58
2023/06/28 06:33:20;;;;;;;33.00;29.88;;;18.00;99.90;;;;;;5025808;28;20060;-58
2023/06/28 06:35:46;;;;;;;33.10;29.73;;;17.20;99.90;;;;;;5027229;28;20037;-58
2023/06/28 06:38:11;;;;;;;32.97;29.75;;;17.80;99.90;;;;;;5045717;28;20037;-58
2023/06/28 06:40:37;;;;;;;32.97;29.27;;;17.40;99.90;;;;;;5030023;28;20060;-58
2023/06/28 06:43:03;;;;;;;34.45;29.98;;;18.00;99.90;;;;;;5028587;28;20058;-58
2023/06/28 06:45:29;;;;;;;33.03;29.95;;;17.20;99.90;;;;;;5029033;28;20499;-58
2023/06/28 06:47:54;;;;;;;35.38;29.90;;;17.40;99.90;;;;;;5029828;28;20033;-58
2023/06/28 06:50:20;;;;;;;34.45;31.10;;;17.90;99.90;;;;;;5045009;28;20049;-58
2023/06/28 06:52:46;;;;;;;33.97;30.65;;;18.00;99.90;;;;;;5029714;28;20038;-58
2023/06/28 06:55:11;;;;;;;34.30;30.77;;;17.40;99.90;;;;;;5029861;28;20116;-58
2023/06/28 06:57:37;;;;;;;34.55;30.85;;;18.00;99.90;;;;;;5029657;28;20038;-59
2023/06/28 07:00:04;;;;;;;33.78;30.27;;;18.20;99.90;;;;;;5044163;28;20543;-58
2023/06/28 07:02:30;;;;;;;32.72;29.75;;;17.80;99.90;;;;;;5022554;28;20511;-58
2023/06/28 07:04:55;;;;;;;33.70;30.25;;;17.70;99.90;;;;;;5061986;28;20037;-59
2023/06/28 07:07:21;;;;;;;36.72;28.65;;;17.50;99.90;;;;;;5029939;28;20443;-58
2023/06/28 07:09:46;;;;;;;30.13;27.10;;;18.10;99.90;;;;;;5029802;28;20048;-58
2023/06/28 07:12:12;;;;;;;30.27;27.17;;;18.10;99.90;;;;;;5029264;28;20515;-58
2023/06/28 07:14:37;;;;;;;31.92;27.15;;;18.00;99.90;;;;;;5032296;28;20563;-58
2023/06/28 07:17:03;;;;;;;29.13;26.10;;;18.30;99.90;;;;;;5033733;28;20495;-58
2023/06/28 07:19:29;;;;;;;30.30;27.27;;;17.80;99.90;;;;;;5033202;28;20037;-61
2023/06/28 07:21:54;;;;;;;31.67;26.58;;;18.20;99.90;;;;;;5040773;28;20084;-58
2023/06/28 07:24:20;;;;;;;29.35;26.20;;;18.30;99.90;;;;;;5032236;28;20117;-58
2023/06/28 07:26:45;;;;;;;29.30;26.70;;;18.00;99.90;;;;;;5032738;28;20503;-59
2023/06/28 07:29:11;;;;;;;29.83;26.73;;;18.40;99.90;;;;;;5033119;28;20045;-58
2023/06/28 07:31:36;;;;;;;29.67;26.70;;;17.60;99.90;;;;;;5041783;28;20044;-58
2023/06/28 07:34:04;;;;;;;30.10;26.85;;;18.10;99.90;;;;;;5033192;28;20044;-59
2023/06/28 07:36:31;;;;;;;29.17;26.02;;;17.60;99.90;;;;;;5032924;28;20127;-59
2023/06/28 07:38:57;;;;;;;29.63;26.27;;;17.80;99.90;;;;;;5023554;28;20041;-59
2023/06/28 07:41:22;;;;;;;28.30;25.10;;;18.20;99.90;;;;;;5019492;28;20128;-59
2023/06/28 07:43:48;;;;;;;29.85;26.85;;;17.60;99.90;;;;;;5032312;28;20049;-59
2023/06/28 07:46:14;;;;;;;27.65;24.75;;;18.70;99.90;;;;;;5032470;28;20049;-59
2023/06/28 07:48:39;;;;;;;28.20;25.02;;;18.80;99.90;;;;;;5032517;28;20037;-59
2023/06/28 07:51:05;;;;;;;29.52;26.73;;;18.40;99.90;;;;;;5032374;28;20431;-59
2023/06/28 07:53:31;;;;;;;29.08;26.17;;;19.00;99.90;;;;;;5014685;28;20428;-59
2023/06/28 07:55:57;;;;;;;29.75;26.88;;;18.60;99.90;;;;;;5026815;28;20038;-58
2023/06/28 07:58:22;;;;;;;29.27;26.58;;;18.50;99.90;;;;;;5030115;28;20479;-59
2023/06/28 08:00:48;;;;;;;28.27;25.73;;;18.90;99.90;;;;;;5036036;28;20110;-59
2023/06/28 08:03:13;;;;;;;27.90;25.40;;;18.80;99.90;;;;;;5035916;28;20167;-59
2023/06/28 08:05:39;;;;;;;28.55;25.83;;;19.00;99.90;;;;;;5032238;28;20037;-59
2023/06/28 08:08:06;;;;;;;27.70;25.35;;;18.70;99.90;;;;;;5047489;28;20064;-59
2023/06/28 08:10:32;;;;;;;27.60;25.10;;;18.40;99.90;;;;;;5033191;28;20041;-58
2023/06/28 08:12:57;;;;;;;25.13;22.92;;;18.20;99.90;;;;;;5038292;28;20044;-58
2023/06/28 08:15:23;;;;;;;26.90;24.60;;;19.10;99.90;;;;;;5032361;28;20047;-59
2023/06/28 08:17:49;;;;;;;28.10;25.40;;;18.50;99.90;;;;;;5032100;28;20041;-59
2023/06/28 08:20:15;;;;;;;24.98;22.63;;;18.00;99.90;;;;;;5016606;28;20042;-59
2023/06/28 08:22:40;;;;;;;27.73;25.27;;;18.20;99.90;;;;;;5022586;28;20046;-59
2023/06/28 08:25:06;;;;;;;28.20;25.40;;;19.10;99.90;;;;;;5026030;28;20049;-59
2023/06/28 08:27:32;;;;;;;28.92;26.30;;;19.10;99.90;;;;;;5020949;28;20114;-58
2023/06/28 08:29:58;;;;;;;31.52;28.15;;;18.90;99.90;;;;;;5032063;28;20045;-59
2023/06/28 08:32:24;;;;;;;33.10;29.52;;;18.20;99.90;;;;;;5030040;28;20053;-58
2023/06/28 08:34:49;;;;;;;34.42;30.92;;;19.30;99.90;;;;;;5031855;28;20067;-59
2023/06/28 08:37:16;;;;;;;35.67;32.05;;;18.60;99.90;;;;;;5031644;28;20495;-59
2023/06/28 08:39:41;;;;;;;35.40;31.85;;;18.40;99.90;;;;;;5031671;28;20550;-59
2023/06/28 08:42:08;;;;;;;34.55;31.35;;;18.30;99.90;;;;;;5021465;28;20041;-60
2023/06/28 08:44:37;;;;;;;35.47;32.08;;;18.30;99.90;;;;;;5029341;28;20052;-59
2023/06/28 08:47:03;;;;;;;35.08;31.88;;;18.50;99.90;;;;;;5031450;28;20037;-58
2023/06/28 08:49:30;;;;;;;34.63;31.48;;;18.50;99.90;;;;;;5031581;28;20047;-59
2023/06/28 08:51:56;;;;;;;34.80;31.23;;;18.40;99.90;;;;;;5026578;28;20091;-59
2023/06/28 08:54:24;;;;;;;35.35;31.85;;;19.70;99.90;;;;;;5015602;28;20041;-59
2023/06/28 08:56:51;;;;;;;32.55;29.63;;;18.50;99.90;;;;;;5023751;28;20041;-59
2023/06/28 08:59:17;;;;;;;34.55;31.48;;;19.00;99.90;;;;;;5031014;28;20124;-59
2023/06/28 09:01:44;;;;;;;36.20;33.00;;;19.60;99.90;;;;;;5031063;28;20527;-60
2023/06/28 09:04:10;;;;;;;35.65;32.35;;;18.80;99.90;;;;;;5024149;28;20042;-59
2023/06/28 09:06:35;;;;;;;35.72;32.53;;;19.10;99.90;;;;;;5030829;28;20089;-58
2023/06/28 09:09:02;;;;;;;35.67;32.47;;;18.60;99.90;;;;;;5031084;28;20048;-59
2023/06/28 09:11:28;;;;;;;37.20;33.60;;;18.80;99.90;;;;;;5028882;28;20045;-59
2023/06/28 09:13:54;;;;;;;37.13;33.63;;;19.30;99.90;;;;;;5011035;28;20041;-59
2023/06/28 09:16:22;;;;;;;36.67;33.45;;;19.90;99.90;;;;;;5017901;28;20041;-59
2023/06/28 09:18:48;;;;;;;36.53;33.25;;;18.80;99.90;;;;;;5010757;28;20049;-59
2023/06/28 09:21:24;;;;;;;38.15;34.55;;;20.00;99.90;;;;;;5020147;28;20582;-59
2023/06/28 09:23:50;;;;;;;39.10;35.47;;;19.60;99.90;;;;;;5040295;28;20045;-59
2023/06/28 09:26:15;;;;;;;40.42;36.40;;;19.00;99.90;;;;;;5030213;28;20393;-59
2023/06/28 09:28:41;;;;;;;44.30;39.78;;;19.20;99.90;;;;;;5030754;28;20030;-58
2023/06/28 09:31:06;;;;;;;43.03;38.70;;;18.90;99.90;;;;;;5030325;28;20499;-58
2023/06/28 09:33:33;;;;;;;44.15;39.58;;;20.10;99.90;;;;;;5024671;28;20068;-59
2023/06/28 09:36:01;;;;;;;44.13;39.97;;;19.60;99.90;;;;;;5030054;28;20029;-58
2023/06/28 09:38:27;;;;;;;44.00;39.55;;;19.10;99.90;;;;;;5030046;28;20038;-58
2023/06/28 09:40:57;;;;;;;44.38;39.88;;;20.10;99.90;;;;;;5029958;28;20076;-58
2023/06/28 09:43:23;;;;;;;45.60;41.00;;;20.20;99.90;;;;;;5030505;28;20637;-58
2023/06/28 09:45:52;;;;;;;45.22;40.80;;;19.40;99.90;;;;;;5030281;28;20041;-58
2023/06/28 09:48:23;;;;;;;46.72;41.95;;;19.60;99.90;;;;;;5029712;28;20134;-58
2023/06/28 09:50:48;;;;;;;45.88;41.30;;;19.20;99.90;;;;;;5030244;28;20827;-58
2023/06/28 09:53:19;;;;;;;45.08;40.58;;;19.30;99.90;;;;;;5027242;28;20037;-58
2023/06/28 09:55:47;;;;;;;45.30;40.55;;;19.30;99.90;;;;;;5019298;28;20033;-59
2023/06/28 09:58:14;;;;;;;46.75;40.90;;;19.60;99.90;;;;;;5028978;28;20523;-59
2023/06/28 10:00:42;;;;;;;47.97;42.92;;;19.10;99.90;;;;;;5026578;28;20533;-58
2023/06/28 10:03:10;;;;;;;47.90;42.50;;;20.10;99.90;;;;;;5014146;28;20121;-59
2023/06/28 10:05:38;;;;;;;50.53;45.28;;;19.00;99.90;;;;;;5042101;28;20037;-58
2023/06/28 10:08:07;;;;;;;48.28;43.20;;;19.60;99.90;;;;;;5029839;28;20512;-58
2023/06/28 10:10:38;;;;;;;51.65;43.85;;;19.20;99.90;;;;;;5018649;28;20037;-58
2023/06/28 10:13:07;;;;;;;54.75;46.08;;;19.40;99.90;;;;;;5029634;28;20041;-59
2023/06/28 10:16:07;;;;;;;50.88;45.30;;;20.20;99.90;;;;;;5030203;28;20049;-58
2023/06/28 10:18:32;;;;;;;53.00;47.42;;;20.40;99.90;;;;;;5006101;28;20057;-58
2023/06/28 10:21:00;;;;;;;52.55;46.95;;;20.30;99.90;;;;;;5010720;28;20049;-58
2023/06/28 10:23:26;;;;;;;51.95;46.40;;;19.60;99.90;;;;;;5010554;28;20053;-58
2023/06/28 10:25:54;;;;;;;53.47;47.72;;;20.00;99.90;;;;;;5010083;28;20084;-59
2023/06/28 10:28:19;;;;;;;55.05;47.90;;;20.10;99.90;;;;;;5014089;28;20048;-59
2023/06/28 10:30:45;;;;;;;53.63;46.50;;;19.20;99.90;;;;;;5029714;28;20042;-59
2023/06/28 10:33:15;;;;;;;53.15;47.53;;;20.30;99.90;;;;;;5029444;28;20559;-59
2023/06/28 10:35:42;;;;;;;52.65;47.20;;;20.40;99.90;;;;;;5028296;28;20443;-59
2023/06/28 10:38:08;;;;;;;54.05;47.65;;;20.30;99.90;;;;;;5024430;28;20044;-59
2023/06/28 10:40:34;;;;;;;54.40;48.63;;;19.70;99.90;;;;;;5012367;28;20033;-59
2023/06/28 10:43:00;;;;;;;54.30;48.40;;;20.70;99.90;;;;;;5028296;28;20080;-59
2023/06/28 10:45:36;;;;;;;55.15;49.55;;;19.80;99.90;;;;;;5029048;28;20084;-59
2023/06/28 10:48:03;;;;;;;54.33;48.30;;;20.70;99.90;;;;;;5029760;28;20064;-59
2023/06/28 10:50:36;;;;;;;51.67;46.63;;;19.80;99.90;;;;;;5027272;28;20034;-59
2023/06/28 10:53:02;;;;;;;52.97;47.63;;;20.90;99.90;;;;;;5023842;28;20088;-59
2023/06/28 10:55:29;;;;;;;53.72;48.10;;;20.00;99.90;;;;;;5050768;28;20037;-59
2023/06/28 10:58:05;;;;;;;51.20;45.97;;;19.60;99.90;;;;;;5031191;28;20033;-59
2023/06/28 11:00:37;;;;;;;53.80;48.10;;;20.60;99.90;;;;;;5033788;28;20080;-59
2023/06/28 11:03:04;;;;;;;54.53;48.22;;;19.60;99.90;;;;;;5033477;28;20052;-59
2023/06/28 11:05:44;;;;;;;56.75;47.67;;;20.60;99.90;;;;;;5033340;28;20041;-59
2023/06/28 11:08:15;;;;;;;53.70;48.05;;;19.50;99.90;;;;;;5032774;28;20083;-58
2023/06/28 11:10:49;;;;;;;54.50;48.45;;;20.60;99.90;;;;;;5032813;28;20029;-59
2023/06/28 11:13:40;;;;;;;54.35;48.90;;;19.70;99.90;;;;;;5026915;28;20034;-59
2023/06/28 11:16:08;;;;;;;54.53;48.92;;;19.90;99.90;;;;;;5020057;28;20395;-59
2023/06/28 11:18:34;;;;;;;54.70;49.03;;;20.10;99.90;;;;;;5032999;28;20415;-59
2023/06/28 11:21:01;;;;;;;55.08;48.15;;;20.10;99.90;;;;;;5065270;28;20037;-59
2023/06/28 11:23:37;;;;;;;55.20;48.78;;;19.80;99.90;;;;;;5033134;28;20045;-59
2023/06/28 11:26:10;;;;;;;55.35;49.75;;;20.70;99.90;;;;;;5031781;28;20034;-59
2023/06/28 11:28:36;;;;;;;53.75;48.22;;;19.80;99.90;;;;;;5032996;28;20037;-59
2023/06/28 11:31:13;;;;;;;53.55;47.92;;;20.50;99.90;;;;;;5043080;28;20415;-59
2023/06/28 11:33:40;;;;;;;54.40;48.88;;;20.70;99.90;;;;;;5033342;28;20037;-59
2023/06/28 11:36:07;;;;;;;56.58;50.65;;;20.00;99.90;;;;;;5033622;28;20064;-59
2023/06/28 11:38:34;;;;;;;56.75;50.83;;;19.70;99.90;;;;;;5033276;28;20045;-59
2023/06/28 11:41:00;;;;;;;55.75;50.17;;;20.60;99.90;;;;;;5033102;28;20453;-59
2023/06/28 11:43:26;;;;;;;56.38;50.20;;;20.90;99.90;;;;;;5032267;28;20257;-59
2023/06/28 11:45:52;;;;;;;57.97;52.05;;;21.40;99.90;;;;;;5031668;28;20046;-58
2023/06/28 11:48:20;;;;;;;56.83;50.80;;;19.90;99.90;;;;;;5031586;28;20038;-58
2023/06/28 11:50:55;;;;;;;57.03;51.35;;;20.00;99.90;;;;;;5031385;28;20044;-59
2023/06/28 11:53:20;;;;;;;57.08;51.28;;;20.70;99.90;;;;;;5031709;28;20111;-59
2023/06/28 11:55:46;;;;;;;60.70;54.38;;;21.40;99.90;;;;;;5031350;28;20037;-58
2023/06/28 11:58:12;;;;;;;63.92;54.38;;;20.10;99.90;;;;;;5031474;28;20408;-58
2023/06/28 12:00:38;;;;;;;58.50;52.15;;;21.20;99.90;;;;;;5029480;28;20120;-59
2023/06/28 12:03:04;;;;;;;54.92;47.72;;;21.30;99.90;;;;;;5031290;28;20051;-59
2023/06/28 12:05:29;;;;;;;54.03;48.20;;;20.40;99.90;;;;;;5031424;28;20042;-58
2023/06/28 12:07:58;;;;;;;54.88;48.85;;;20.60;99.90;;;;;;5031216;28;20038;-58
2023/06/28 12:10:23;;;;;;;59.70;53.20;;;21.10;99.90;;;;;;5021723;28;20088;-58
2023/06/28 12:12:49;;;;;;;59.15;52.88;;;20.50;99.90;;;;;;5028147;28;20077;-58
2023/06/28 12:15:21;;;;;;;60.95;54.20;;;21.70;99.90;;;;;;5011410;28;20046;-58
2023/06/28 12:17:47;;;;;;;63.10;54.42;;;20.60;99.90;;;;;;5027943;28;20029;-58
2023/06/28 12:20:13;;;;;;;59.05;52.55;;;21.50;99.90;;;;;;5032631;28;20037;-58
2023/06/28 12:22:44;;;;;;;54.95;46.35;;;20.60;99.90;;;;;;5033899;28;20045;-58
2023/06/28 12:25:10;;;;;;;48.05;41.25;;;21.90;99.90;;;;;;5020214;28;20038;-58